createdAt,value
2023-03-05T00:02:57.798Z,100159.03
2023-03-05T00:08:04.952Z,100157.30
2023-03-05T00:13:10.804Z,100149.33
2023-03-05T00:18:17.002Z,100145.19
2023-03-05T00:23:22.826Z,100143.41
2023-03-05T00:28:28.642Z,100140.95
2023-03-05T00:33:34.415Z,100139.28
2023-03-05T00:38:40.767Z,100131.84
2023-03-05T00:43:47.253Z,100123.35
2023-03-05T00:48:53.291Z,100117.88
2023-03-05T00:53:59.408Z,100114.91
2023-03-05T00:59:06.266Z,100112.28
2023-03-05T01:04:12.472Z,100109.73
2023-03-05T01:09:19.527Z,100102.52
2023-03-05T01:14:27.792Z,100097.24
2023-03-05T01:19:33.663Z,100092.96
2023-03-05T01:24:39.491Z,100089.37
2023-03-05T01:29:45.796Z,100084.73
2023-03-05T01:34:51.841Z,100076.52
2023-03-05T01:39:57.612Z,100071.38
2023-03-05T01:45:07.084Z,100066.56
2023-03-05T01:50:16.141Z,100062.56
2023-03-05T01:55:25.660Z,100058.98
2023-03-05T02:00:35.867Z,100052.41
2023-03-05T02:05:44.427Z,100052.33
2023-03-05T02:10:53.023Z,100046.75
2023-03-05T02:16:01.807Z,100046.77
2023-03-05T02:21:08.753Z,100044.66
2023-03-05T02:26:14.896Z,100046.55
2023-03-05T02:31:23.282Z,100036.53
2023-03-05T02:36:29.283Z,100032.57
2023-03-05T02:41:35.383Z,100024.62
2023-03-05T02:46:41.397Z,100023.63
2023-03-05T02:51:47.262Z,100022.67
2023-03-05T02:56:53.077Z,100021.11
2023-03-05T03:02:01.083Z,100019.13
2023-03-05T03:07:07.439Z,100017.08
2023-03-05T03:12:13.408Z,100014.70
2023-03-05T03:17:20.120Z,100009.17
2023-03-05T03:22:26.066Z,100008.23
2023-03-05T03:27:31.968Z,100008.48
2023-03-05T03:32:37.869Z,100008.31
2023-03-05T03:37:43.926Z,100005.16
2023-03-05T03:42:51.139Z,99996.77
2023-03-05T03:47:57.251Z,99992.38
2023-03-05T03:53:03.863Z,99988.48
2023-03-05T03:58:09.670Z,99983.20
2023-03-05T04:03:15.566Z,99975.34
2023-03-05T04:08:21.672Z,99973.48
2023-03-05T04:13:27.581Z,99969.14
2023-03-05T04:18:33.734Z,99960.75
2023-03-05T04:23:39.764Z,99956.86
2023-03-05T04:28:46.589Z,99954.66
2023-03-05T04:33:52.421Z,99948.55
2023-03-05T04:38:58.367Z,99942.10
2023-03-05T04:44:05.238Z,99944.12
2023-03-05T04:49:11.052Z,99938.19
2023-03-05T04:54:17.057Z,99935.83
2023-03-05T04:59:22.897Z,99931.40
2023-03-05T05:04:28.841Z,99923.36
2023-03-05T05:09:35.013Z,99919.92
2023-03-05T05:14:40.781Z,99914.24
2023-03-05T05:19:46.788Z,99905.41
2023-03-05T05:24:52.524Z,99905.05
2023-03-05T05:29:58.641Z,99899.24
2023-03-05T05:35:05.515Z,99898.74
2023-03-05T05:40:13.195Z,99901.56
2023-03-05T05:45:19.472Z,99899.52
2023-03-05T05:50:25.367Z,99900.49
2023-03-05T05:55:31.332Z,99898.56
2023-03-05T06:00:38.465Z,99902.48
2023-03-05T06:05:44.894Z,99904.49
2023-03-05T06:10:56.304Z,99897.83
2023-03-05T06:16:03.854Z,99891.39
2023-03-05T06:21:11.771Z,99885.45
2023-03-05T06:26:20.156Z,99871.49
2023-03-05T06:31:27.731Z,99851.08
2023-03-05T06:36:33.904Z,99847.52
2023-03-05T06:41:40.055Z,99841.56
2023-03-05T06:46:45.856Z,99841.61
2023-03-05T06:51:51.457Z,99845.12
2023-03-05T06:56:57.326Z,99834.64
2023-03-05T07:02:04.470Z,99814.28
2023-03-05T07:07:10.188Z,99819.56
2023-03-05T07:12:16.709Z,99812.89
2023-03-05T07:17:22.640Z,99808.02
2023-03-05T07:22:28.914Z,99805.85
2023-03-05T07:27:38.473Z,99808.69
2023-03-05T07:32:44.424Z,99813.55
2023-03-05T07:37:50.531Z,99812.52
2023-03-05T07:42:56.832Z,99806.13
2023-03-05T07:48:08.553Z,99802.19
2023-03-05T07:53:15.635Z,99804.66
2023-03-05T07:58:22.065Z,99809.48
2023-03-05T08:03:28.336Z,99806.91
2023-03-05T08:08:34.405Z,99806.69
2023-03-05T08:13:41.045Z,99813.44
2023-03-05T08:18:47.694Z,99798.92
2023-03-05T08:23:53.372Z,99802.70
2023-03-05T08:28:59.825Z,99802.10
2023-03-05T08:34:07.571Z,99795.83
2023-03-05T08:39:13.492Z,99795.12
2023-03-05T08:44:19.425Z,99794.19
2023-03-05T08:49:25.582Z,99789.85
2023-03-05T08:54:31.151Z,99791.62
2023-03-05T08:59:36.947Z,99790.11
2023-03-05T09:04:42.848Z,99793.23
2023-03-05T09:09:48.733Z,99797.02
2023-03-05T09:14:57.292Z,99802.50
2023-03-05T09:20:04.200Z,99801.29
2023-03-05T09:25:12.960Z,99799.06
2023-03-05T09:30:19.707Z,99799.75
2023-03-05T09:35:25.875Z,99802.32
2023-03-05T09:40:42.230Z,99802.84
2023-03-05T09:46:02.368Z,99803.70
2023-03-05T09:51:16.820Z,99805.23
2023-03-05T09:56:26.710Z,99801.14
2023-03-05T10:01:39.679Z,99797.87
2023-03-05T10:06:53.636Z,99793.08
2023-03-05T10:12:03.572Z,99793.60
2023-03-05T10:17:40.109Z,99791.19
2023-03-05T10:23:04.249Z,99791.19
2023-03-05T10:28:17.989Z,99787.26
2023-03-05T10:33:35.089Z,99778.69
2023-03-05T10:38:59.967Z,99773.03
2023-03-05T10:44:15.833Z,99770.98
2023-03-05T10:49:26.796Z,99766.85
2023-03-05T10:54:35.982Z,99761.05
2023-03-05T10:59:46.866Z,99760.17
2023-03-05T11:04:54.504Z,99754.52
2023-03-05T11:10:17.614Z,99750.77
2023-03-05T11:15:30.481Z,99743.40
2023-03-05T11:20:37.766Z,99739.63
2023-03-05T11:26:01.975Z,99739.11
2023-03-05T11:31:21.612Z,99731.91
2023-03-05T11:36:30.999Z,99726.42
2023-03-05T11:41:40.688Z,99723.00
2023-03-05T11:46:51.009Z,99718.72
2023-03-05T11:52:06.705Z,99715.45
2023-03-05T11:57:16.861Z,99712.89
2023-03-05T12:02:25.986Z,99708.95
2023-03-05T12:07:37.565Z,99702.78
2023-03-05T12:12:48.988Z,99698.86
2023-03-05T12:18:07.143Z,99693.39
2023-03-05T12:23:18.528Z,99690.10
2023-03-05T12:28:57.604Z,99691.29
2023-03-05T12:34:47.368Z,99687.52
2023-03-05T12:40:01.203Z,99683.56
2023-03-05T12:45:29.124Z,99682.02
2023-03-05T12:50:59.334Z,99680.31
2023-03-05T12:56:17.091Z,99672.60
2023-03-05T13:01:36.064Z,99667.30
2023-03-05T13:06:42.925Z,99658.76
2023-03-05T13:11:55.365Z,99658.93
2023-03-05T13:17:03.064Z,99657.07
2023-03-05T13:22:13.364Z,99656.02
2023-03-05T13:27:29.469Z,99651.92
2023-03-05T13:32:35.914Z,99645.41
2023-03-05T13:37:43.837Z,99643.17
2023-03-05T13:42:53.225Z,99640.61
2023-03-05T13:48:01.247Z,99638.91
2023-03-05T13:53:21.088Z,99634.80
2023-03-05T13:58:49.583Z,99626.76
2023-03-05T14:03:58.006Z,99617.36
2023-03-05T14:09:18.761Z,99612.74
2023-03-05T14:14:26.370Z,99606.92
2023-03-05T14:19:38.408Z,99606.77
2023-03-05T14:24:53.155Z,99604.86
2023-03-05T14:29:59.609Z,99606.40
2023-03-05T14:35:07.489Z,99605.88
2023-03-05T14:40:26.291Z,99599.38
2023-03-05T14:45:33.518Z,99594.77
2023-03-05T14:50:43.196Z,99596.48
2023-03-05T14:55:56.057Z,99591.70
2023-03-05T15:01:03.490Z,99588.79
2023-03-05T15:06:16.121Z,99592.88
2023-03-05T15:11:23.235Z,99589.95
2023-03-05T15:16:30.500Z,99594.73
2023-03-05T15:21:37.917Z,99593.86
2023-03-05T15:26:43.819Z,99593.52
2023-03-05T15:31:52.730Z,99597.10
2023-03-05T15:36:58.557Z,99598.95
2023-03-05T15:42:06.396Z,99596.20
2023-03-05T15:47:12.512Z,99594.27
2023-03-05T15:52:18.165Z,99595.07
2023-03-05T15:57:24.403Z,99594.52
2023-03-05T16:02:30.118Z,99600.13
2023-03-05T16:07:39.829Z,99600.10
2023-03-05T16:12:48.441Z,99604.66
2023-03-05T16:17:56.574Z,99604.74
2023-03-05T16:23:04.145Z,99608.41
2023-03-05T16:28:10.942Z,99610.20
2023-03-05T16:33:16.762Z,99612.88
2023-03-05T16:38:22.622Z,99615.73
2023-03-05T16:43:28.811Z,99616.34
2023-03-05T16:48:35.858Z,99619.91
2023-03-05T16:53:42.526Z,99625.73
2023-03-05T16:58:50.494Z,99628.82
2023-03-05T17:03:59.689Z,99630.86
2023-03-05T17:09:05.724Z,99632.18
2023-03-05T17:14:11.540Z,99631.77
2023-03-05T17:19:17.696Z,99635.40
2023-03-05T17:24:23.571Z,99637.51
2023-03-05T17:29:29.573Z,99631.73
2023-03-05T17:34:36.943Z,99632.73
2023-03-05T17:39:43.000Z,99629.29
2023-03-05T17:44:50.300Z,99627.55
2023-03-05T17:49:56.717Z,99627.17
2023-03-05T17:55:02.830Z,99627.34
2023-03-05T18:00:15.182Z,99626.46
2023-03-05T18:05:23.565Z,99629.92
2023-03-05T18:10:31.165Z,99631.13
2023-03-05T18:15:40.519Z,99628.14
2023-03-05T18:20:48.713Z,99626.63
2023-03-05T18:25:54.755Z,99627.14
2023-03-05T18:31:01.111Z,99631.73
2023-03-05T18:36:10.785Z,99631.88
2023-03-05T18:41:22.422Z,99633.93
2023-03-05T18:46:28.575Z,99637.05
2023-03-05T18:51:36.343Z,99635.55
2023-03-05T18:56:42.464Z,99629.73
2023-03-05T19:01:48.598Z,99630.13
2023-03-05T19:06:55.185Z,99629.26
2023-03-05T19:12:01.143Z,99633.08
2023-03-05T19:17:06.780Z,99627.25
2023-03-05T19:22:12.933Z,99630.35
2023-03-05T19:27:18.881Z,99631.22
2023-03-05T19:32:25.098Z,99633.36
2023-03-05T19:37:32.276Z,99634.74
2023-03-05T19:42:39.093Z,99634.09
2023-03-05T19:47:45.256Z,99634.36
2023-03-05T19:52:51.255Z,99632.05
2023-03-05T19:57:57.385Z,99635.83
2023-03-05T20:03:03.713Z,99635.60
2023-03-05T20:08:09.741Z,99638.33
2023-03-05T20:13:15.518Z,99639.32
2023-03-05T20:18:21.922Z,99636.83
2023-03-05T20:23:31.350Z,99635.40
2023-03-05T20:28:37.111Z,99634.78
2023-03-05T20:33:42.972Z,99631.55
2023-03-05T20:38:49.085Z,99634.69
2023-03-05T20:43:55.775Z,99633.36
2023-03-05T20:49:03.814Z,99632.06
2023-03-05T20:54:12.227Z,99629.89
2023-03-05T20:59:18.070Z,99629.80
2023-03-05T21:04:23.749Z,99636.12
2023-03-05T21:09:29.588Z,99640.33
2023-03-05T21:14:38.140Z,99634.79
2023-03-05T21:19:44.104Z,99632.99
2023-03-05T21:25:20.937Z,99628.67
2023-03-05T21:30:31.947Z,99624.80
2023-03-05T21:35:38.923Z,99623.27
2023-03-05T21:40:48.635Z,99618.89
2023-03-05T21:45:57.229Z,99618.06
2023-03-05T21:51:38.342Z,99614.70
2023-03-05T21:56:54.503Z,99614.71
2023-03-05T22:02:00.733Z,99614.14
2023-03-05T22:07:07.140Z,99614.33
2023-03-05T22:13:05.854Z,99615.90
2023-03-05T22:18:12.087Z,99613.53
2023-03-05T22:23:19.698Z,99613.02
2023-03-05T22:28:26.228Z,99610.61
2023-03-05T22:33:32.613Z,99606.95
2023-03-05T22:38:38.658Z,99603.98
2023-03-05T22:43:44.656Z,99608.45
2023-03-05T22:48:52.719Z,99611.15
2023-03-05T22:53:58.642Z,99608.80
2023-03-05T22:59:04.680Z,99610.74
2023-03-05T23:04:57.631Z,99604.98
2023-03-05T23:10:07.201Z,99603.77
2023-03-05T23:15:16.484Z,99603.55
2023-03-05T23:20:24.205Z,99605.50
2023-03-05T23:25:32.881Z,99603.14
2023-03-05T23:30:39.495Z,99597.77
2023-03-05T23:35:52.852Z,99595.60
2023-03-05T23:41:01.399Z,99595.95
2023-03-05T23:46:11.996Z,99596.36
2023-03-05T23:51:18.130Z,99594.36
2023-03-05T23:56:24.186Z,99594.95
